Time;durP1;ratioP1;P1;durP2;ratioP2;P2;SDS_P1;SDS_P2;PMS_P1;PMS_P2;Temp;Humidity;BMP_temperature;BMP_pressure;BME280_temperature;BME280_humidity;BME280_pressure;Samples;Min_cycle;Max_cycle;Signal;HPM_P1;HPM_P2
2022/10/15 00:00:08;;;;;;;;;;;;;;;8.48;69.78;101882.41;1708420;82;27524;-61
2022/10/15 00:02:37;;;;;;;;;;;;;;;8.36;70.31;101881.31;1690529;82;25695;-60
2022/10/15 00:05:04;;;;;;;;;;;;;;;8.29;70.60;101883.50;1737139;82;25765;-60
2022/10/15 00:07:31;;;;;;;;;;;;;;;8.23;70.68;101878.52;1702139;82;26521;-60
2022/10/15 00:09:57;;;;;;;;;;;;;;;8.20;70.66;101881.37;1724769;82;25770;-60
2022/10/15 00:12:24;;;;;;;;;;;;;;;8.18;71.03;101881.94;1733926;82;27501;-61
2022/10/15 00:14:51;;;;;;;;;;;;;;;8.12;71.11;101876.97;1736946;82;25704;-60
2022/10/15 00:17:17;;;;;;;;;;;;;;;8.08;73.17;101878.09;1709766;82;25798;-60
2022/10/15 00:19:44;;;;;;;;;;;;;;;7.95;72.22;101880.65;1686011;82;25873;-61
2022/10/15 00:22:11;;;;;;;;;;;;;;;7.93;72.28;101883.92;1726530;83;25798;-60
2022/10/15 00:24:38;;;;;;;;;;;;;;;7.93;72.16;101885.27;1700050;83;27399;-60
2022/10/15 00:27:05;;;;;;;;;;;;;;;7.90;72.37;101885.44;1696583;84;25686;-60
2022/10/15 00:29:32;;;;;;;;;;;;;;;7.86;72.29;101884.76;1671677;85;25742;-60
2022/10/15 00:31:59;;;;;;;;;;;;;;;7.80;72.39;101883.30;1718338;83;25755;-62
2022/10/15 00:34:25;;;;;;;;;;;;;;;7.80;72.62;101883.30;1694036;83;25704;-60
2022/10/15 00:36:52;;;;;;;;;;;;;;;7.82;72.68;101877.84;1671800;86;27491;-60
2022/10/15 00:39:18;;;;;;;;;;;;;;;7.84;72.65;101886.66;1723758;83;25836;-61
2022/10/15 00:41:45;;;;;;;;;;;;;;;7.84;72.50;101878.13;1674182;83;25812;-60
2022/10/15 00:44:25;;;;;;;;;;;;;;;7.83;72.64;101880.45;1723226;83;26084;-60
2022/10/15 00:46:55;;;;;;;;;;;;;;;7.84;72.46;101887.50;1709337;83;27374;-60
2022/10/15 00:49:27;;;;;;;;;;;;;;;7.85;72.62;101883.03;1699420;83;27336;-60
2022/10/15 00:51:57;;;;;;;;;;;;;;;7.80;72.63;101885.98;1687317;85;25793;-58
2022/10/15 00:54:26;;;;;;;;;;;;;;;7.81;72.78;101881.02;1717016;83;25415;-59
2022/10/15 00:56:54;;;;;;;;;;;;;;;7.84;72.88;101876.78;1690251;83;25977;-59
2022/10/15 00:59:22;;;;;;;;;;;;;;;7.86;72.98;101878.06;1715223;83;25732;-59
2022/10/15 01:01:49;;;;;;;;;;;;;;;7.86;72.85;101878.06;1723412;83;27450;-60
2022/10/15 01:04:17;;;;;;;;;;;;;;;7.87;72.87;101883.80;1685654;83;25668;-61
2022/10/15 01:06:45;;;;;;;;;;;;;;;7.90;73.11;101877.39;1671503;86;25760;-60
2022/10/15 01:09:12;;;;;;;;;;;;;;;7.95;73.09;101881.53;1726042;83;27995;-60
2022/10/15 01:11:47;;;;;;;;;;;;;;;7.99;72.85;101883.55;1729046;83;25465;-60
2022/10/15 01:14:36;;;;;;;;;;;;;;;7.98;73.06;101877.80;1699164;83;28344;-60
2022/10/15 01:17:06;;;;;;;;;;;;;;;8.01;73.04;101879.42;1690119;83;27410;-59
2022/10/15 01:19:57;;;;;;;;;;;;;;;8.09;73.26;101882.04;1715982;82;25539;-60
2022/10/15 01:22:53;;;;;;;;;;;;;;;8.13;73.14;101875.52;1721169;83;25729;-60
2022/10/15 01:25:40;;;;;;;;;;;;;;;8.18;72.85;101877.08;1729024;83;25760;-60
2022/10/15 01:28:24;;;;;;;;;;;;;;;8.17;72.67;101874.86;1728137;83;28211;-60
2022/10/15 01:31:02;;;;;;;;;;;;;;;8.25;73.04;101874.40;1729017;83;25719;-61
2022/10/15 01:33:35;;;;;;;;;;;;;;;8.32;72.96;101885.61;1701177;83;25707;-59
2022/10/15 01:36:38;;;;;;;;;;;;;;;8.37;73.02;101876.34;1676537;83;26520;-60
2022/10/15 01:39:14;;;;;;;;;;;;;;;8.43;72.80;101876.41;1701818;83;25836;-60
2022/10/15 01:41:46;;;;;;;;;;;;;;;8.46;72.71;101885.16;1687206;83;27613;-62
2022/10/15 01:44:23;;;;;;;;;;;;;;;8.48;72.60;101884.20;1672021;85;25803;-61
2022/10/15 01:47:00;;;;;;;;;;;;;;;8.49;72.67;101887.27;1666032;83;25844;-61
2022/10/15 01:49:29;;;;;;;;;;;;;;;8.50;72.60;101882.30;1726661;82;25857;-61
2022/10/15 01:51:58;;;;;;;;;;;;;;;8.48;72.45;101884.20;1675051;83;26027;-61
2022/10/15 01:54:26;;;;;;;;;;;;;;;8.48;72.41;101889.56;1687699;83;27480;-60
2022/10/15 01:56:54;;;;;;;;;;;;;;;8.44;72.42;101883.04;1726067;82;25733;-61
2022/10/15 01:59:24;;;;;;;;;;;;;;;8.42;72.27;101890.31;1706108;83;26342;-61
2022/10/15 02:01:51;;;;;;;;;;;;;;;8.43;72.23;101883.11;1680929;83;25784;-61
2022/10/15 02:04:23;;;;;;;;;;;;;;;8.43;72.29;101885.33;1724627;82;25674;-61
2022/10/15 02:07:02;;;;;;;;;;;;;;;8.43;72.34;101883.11;1728205;82;27653;-60
2022/10/15 02:09:51;;;;;;;;;;;;;;;8.41;72.28;101885.05;1712593;82;26021;-60
2022/10/15 02:12:43;;;;;;;;;;;;;;;8.39;72.31;101882.44;1726134;83;25693;-61
2022/10/15 02:15:20;;;;;;;;;;;;;;;8.36;72.09;101888.02;1708223;83;25708;-60
2022/10/15 02:18:14;;;;;;;;;;;;;;;8.25;71.64;101884.63;1702968;83;25781;-61
2022/10/15 02:20:58;;;;;;;;;;;;;;;8.22;71.70;101884.84;1712704;82;27496;-61
2022/10/15 02:23:34;;;;;;;;;;;;;;;8.23;72.01;101885.69;1678650;83;25760;-61
2022/10/15 02:26:03;;;;;;;;;;;;;;;8.23;71.81;101887.03;1699640;83;25537;-61
2022/10/15 02:28:32;;;;;;;;;;;;;;;8.22;71.86;101886.64;1699684;83;25897;-60
2022/10/15 02:30:59;;;;;;;;;;;;;;;8.17;71.54;101891.43;1700126;84;25892;-61
2022/10/15 02:33:26;;;;;;;;;;;;;;;8.12;71.43;101885.01;1699545;83;27636;-61
2022/10/15 02:35:54;;;;;;;;;;;;;;;8.07;71.30;101884.44;1699530;83;25734;-61
2022/10/15 02:38:23;;;;;;;;;;;;;;;8.02;71.29;101879.81;1674911;83;25771;-60
2022/10/15 02:40:51;;;;;;;;;;;;;;;7.94;71.15;101882.94;1709152;82;25841;-60
2022/10/15 02:43:20;;;;;;;;;;;;;;;7.87;71.21;101881.13;1690797;83;26442;-61
2022/10/15 02:45:48;;;;;;;;;;;;;;;7.80;71.25;101883.76;1729130;82;27466;-61
2022/10/15 02:48:15;;;;;;;;;;;;;;;7.73;71.38;101874.36;1730330;82;25456;-60
2022/10/15 02:50:43;;;;;;;;;;;;;;;7.70;71.33;101886.12;1695791;84;26136;-60
2022/10/15 02:53:11;;;;;;;;;;;;;;;7.64;71.29;101885.16;1725227;83;25752;-60
2022/10/15 02:55:40;;;;;;;;;;;;;;;7.58;71.36;101883.70;1710119;82;25728;-60
2022/10/15 02:58:06;;;;;;;;;;;;;;;7.55;71.38;101881.19;1721590;82;27529;-61
2022/10/15 03:00:33;;;;;;;;;;;;;;;7.47;70.99;101882.99;1707235;83;27213;-60
2022/10/15 03:03:00;;;;;;;;;;;;;;;7.40;71.16;101883.42;1724324;83;25772;-61
2022/10/15 03:05:27;;;;;;;;;;;;;;;7.39;71.51;101879.02;1709904;82;26558;-61
2022/10/15 03:07:55;;;;;;;;;;;;;;;7.36;71.54;101885.41;1685137;84;25736;-61
2022/10/15 03:10:21;;;;;;;;;;;;;;;7.32;71.44;101879.83;1704513;83;27576;-61
2022/10/15 03:12:48;;;;;;;;;;;;;;;7.28;71.32;101885.84;1722382;83;25438;-61
2022/10/15 03:15:15;;;;;;;;;;;;;;;7.22;71.45;101883.52;1704655;83;25760;-60
2022/10/15 03:17:42;;;;;;;;;;;;;;;7.18;71.54;101883.30;1728976;82;25941;-60
2022/10/15 03:20:09;;;;;;;;;;;;;;;7.15;71.75;101884.83;1680487;82;27216;-61
2022/10/15 03:22:37;;;;;;;;;;;;;;;7.11;71.69;101881.92;1671662;85;27516;-60
2022/10/15 03:25:05;;;;;;;;;;;;;;;7.08;71.81;101889.66;1721354;83;26080;-60
2022/10/15 03:27:32;;;;;;;;;;;;;;;7.04;71.83;101875.59;1729004;83;25782;-60
2022/10/15 03:29:58;;;;;;;;;;;;;;;7.03;71.86;101873.00;1727102;83;25772;-61
2022/10/15 03:32:26;;;;;;;;;;;;;;;7.02;71.87;101878.81;1729082;83;25524;-59
2022/10/15 03:34:53;;;;;;;;;;;;;;;6.98;72.03;101867.91;1685024;83;27495;-61
2022/10/15 03:37:20;;;;;;;;;;;;;;;6.94;72.10;101874.37;1695008;83;25778;-61
2022/10/15 03:39:47;;;;;;;;;;;;;;;6.92;72.23;101876.75;1679850;83;25497;-61
2022/10/15 03:42:14;;;;;;;;;;;;;;;6.91;72.21;101875.02;1719919;83;26411;-61
2022/10/15 03:44:44;;;;;;;;;;;;;;;6.92;72.23;101874.07;1675925;83;25772;-61
2022/10/15 03:47:13;;;;;;;;;;;;;;;6.89;72.02;101875.96;1671666;85;27560;-60
2022/10/15 03:49:47;;;;;;;;;;;;;;;6.88;72.08;101874.23;1673010;83;25896;-60
2022/10/15 03:52:14;;;;;;;;;;;;;;;6.87;72.05;101878.34;1700371;83;25709;-59
2022/10/15 03:54:41;;;;;;;;;;;;;;;6.83;71.87;101876.77;1703701;82;25841;-60
2022/10/15 03:57:08;;;;;;;;;;;;;;;6.77;71.82;101881.97;1714233;82;25515;-60
2022/10/15 03:59:37;;;;;;;;;;;;;;;6.69;71.69;101880.19;1674379;83;27538;-60
2022/10/15 04:02:05;;;;;;;;;;;;;;;6.66;72.12;101879.05;1705304;83;25530;-61
2022/10/15 04:04:32;;;;;;;;;;;;;;;6.62;71.88;101879.69;1728036;83;25788;-60
2022/10/15 04:06:59;;;;;;;;;;;;;;;6.53;71.87;101877.02;1717078;83;25941;-60
2022/10/15 04:09:26;;;;;;;;;;;;;;;6.47;71.96;101883.16;1671628;84;25759;-61
2022/10/15 04:11:54;;;;;;;;;;;;;;;6.42;71.85;101890.09;1676308;83;27497;-62
2022/10/15 04:14:21;;;;;;;;;;;;;;;6.39;71.97;101884.93;1708068;83;25700;-60
2022/10/15 04:16:47;;;;;;;;;;;;;;;6.36;71.96;101883.30;1727904;82;25712;-61
2022/10/15 04:19:18;;;;;;;;;;;;;;;6.25;71.79;101887.84;1726589;82;25790;-61
2022/10/15 04:21:47;;;;;;;;;;;;;;;6.21;72.02;101888.09;1729070;82;25834;-60
2022/10/15 04:24:15;;;;;;;;;;;;;;;6.18;72.47;101875.76;1717039;82;27449;-60
2022/10/15 04:26:42;;;;;;;;;;;;;;;6.17;72.49;101881.19;1689753;83;25525;-60
2022/10/15 04:29:09;;;;;;;;;;;;;;;6.16;72.53;101875.45;1681279;83;25755;-61
2022/10/15 04:31:36;;;;;;;;;;;;;;;6.16;72.62;101872.30;1728860;83;25800;-60
2022/10/15 04:34:04;;;;;;;;;;;;;;;6.17;72.61;101871.84;1720215;83;25739;-60
2022/10/15 04:36:30;;;;;;;;;;;;;;;6.16;72.58;101875.45;1722906;83;27592;-60
2022/10/15 04:39:01;;;;;;;;;;;;;;;6.15;72.55;101877.24;1708255;82;25941;-61
2022/10/15 04:41:41;;;;;;;;;;;;;;;6.13;73.03;101880.49;1699847;84;25716;-59
2022/10/15 04:44:13;;;;;;;;;;;;;;;6.15;73.01;101881.25;1715092;83;25867;-60
2022/10/15 04:46:42;;;;;;;;;;;;;;;6.15;72.90;101887.93;1713223;83;25682;-60
2022/10/15 04:49:10;;;;;;;;;;;;;;;6.17;73.06;101887.39;1704853;82;28236;-60
2022/10/15 04:51:38;;;;;;;;;;;;;;;6.19;73.07;101879.28;1701608;83;25491;-60
2022/10/15 04:54:09;;;;;;;;;;;;;;;6.19;73.16;101888.63;1725174;82;25736;-60
2022/10/15 04:56:37;;;;;;;;;;;;;;;6.21;73.05;101886.30;1728188;82;25790;-61
2022/10/15 04:59:07;;;;;;;;;;;;;;;6.23;73.29;101883.05;1710943;82;25745;-60
2022/10/15 05:01:36;;;;;;;;;;;;;;;6.23;73.23;101887.05;1709949;83;27623;-60
2022/10/15 05:04:04;;;;;;;;;;;;;;;6.24;73.10;101892.80;1703581;83;25732;-60
2022/10/15 05:06:33;;;;;;;;;;;;;;;6.28;73.25;101888.15;1699663;83;25702;-60
2022/10/15 05:09:02;;;;;;;;;;;;;;;6.32;73.25;101880.38;1715008;82;26479;-59
2022/10/15 05:11:30;;;;;;;;;;;;;;;6.35;73.34;101889.58;1729295;82;26271;-60
2022/10/15 05:13:57;;;;;;;;;;;;;;;6.39;73.33;101886.27;1721213;83;27515;-60
2022/10/15 05:16:27;;;;;;;;;;;;;;;6.45;73.46;101887.75;1712588;82;25805;-59
2022/10/15 05:18:59;;;;;;;;;;;;;;;6.49;73.41;101887.51;1714013;83;25812;-59
2022/10/15 05:21:26;;;;;;;;;;;;;;;6.56;73.42;101894.25;1722291;82;26152;-59
2022/10/15 05:23:55;;;;;;;;;;;;;;;6.61;73.17;101889.11;1679138;84;25725;-60
2022/10/15 05:26:40;;;;;;;;;;;;;;;6.61;73.11;101892.66;1679291;85;27547;-59
2022/10/15 05:29:06;;;;;;;;;;;;;;;6.70;73.23;101889.49;1679392;82;25687;-60
2022/10/15 05:31:33;;;;;;;;;;;;;;;6.76;73.30;101901.67;1691775;82;26732;-60
2022/10/15 05:34:07;;;;;;;;;;;;;;;6.80;73.37;101900.54;1696859;82;25829;-60
2022/10/15 05:36:35;;;;;;;;;;;;;;;6.86;73.53;101902.02;1701369;84;25750;-60
2022/10/15 05:39:09;;;;;;;;;;;;;;;6.90;73.58;101899.58;1697983;82;27524;-59
2022/10/15 05:41:35;;;;;;;;;;;;;;;6.94;73.51;101905.13;1704647;82;25728;-59
2022/10/15 05:44:02;;;;;;;;;;;;;;;6.99;73.30;101908.41;1697316;82;25497;-60
2022/10/15 05:46:29;;;;;;;;;;;;;;;7.03;73.38;101909.13;1702832;84;25923;-59
2022/10/15 05:48:56;;;;;;;;;;;;;;;7.12;73.68;101914.42;1703652;82;25795;-61
2022/10/15 05:51:25;;;;;;;;;;;;;;;7.19;73.60;101912.67;1669851;84;27695;-60
2022/10/15 05:53:55;;;;;;;;;;;;;;;7.27;73.51;101914.05;1701124;82;25779;-60
2022/10/15 05:56:22;;;;;;;;;;;;;;;7.36;73.30;101917.53;1699639;82;25763;-60
2022/10/15 05:58:49;;;;;;;;;;;;;;;7.41;73.02;101915.45;1699956;82;25790;-60
2022/10/15 06:01:16;;;;;;;;;;;;;;;7.47;72.75;101915.13;1706062;82;25767;-60
2022/10/15 06:03:45;;;;;;;;;;;;;;;7.56;72.62;101916.88;1701969;82;27682;-60
2022/10/15 06:06:18;;;;;;;;;;;;;;;7.64;72.33;101914.13;1699873;82;26022;-60
2022/10/15 06:08:45;;;;;;;;;;;;;;;7.71;71.97;101916.47;1706970;82;25775;-59
2022/10/15 06:11:12;;;;;;;;;;;;;;;7.74;71.58;101918.49;1708040;84;25767;-61
2022/10/15 06:13:40;;;;;;;;;;;;;;;7.79;71.45;101924.43;1711115;82;25699;-61
2022/10/15 06:16:08;;;;;;;;;;;;;;;7.85;71.36;101927.23;1707346;82;28145;-60
2022/10/15 06:18:35;;;;;;;;;;;;;;;7.91;71.30;101924.67;1712483;82;25803;-60
2022/10/15 06:21:06;;;;;;;;;;;;;;;7.97;70.95;101931.87;1736347;82;25739;-60
2022/10/15 06:23:33;;;;;;;;;;;;;;;8.04;70.98;101928.83;1730482;82;26646;-60
2022/10/15 06:26:06;;;;;;;;;;;;;;;8.10;70.75;101932.47;1711425;82;25756;-60
2022/10/15 06:28:33;;;;;;;;;;;;;;;8.16;70.63;101934.77;1703839;82;28159;-61
2022/10/15 06:31:00;;;;;;;;;;;;;;;8.20;70.28;101942.19;1727530;82;26136;-60
2022/10/15 06:33:29;;;;;;;;;;;;;;;8.25;70.16;101936.06;1735554;81;25602;-61
2022/10/15 06:36:04;;;;;;;;;;;;;;;8.33;70.00;101936.95;1716837;82;25785;-61
2022/10/15 06:38:31;;;;;;;;;;;;;;;8.42;70.02;101934.55;1689123;82;25739;-61
2022/10/15 06:40:58;;;;;;;;;;;;;;;8.53;70.01;101935.75;1707395;82;27578;-60
2022/10/15 06:43:25;;;;;;;;;;;;;;;8.63;69.94;101944.08;1682881;82;25809;-60
2022/10/15 06:45:51;;;;;;;;;;;;;;;8.69;69.68;101939.21;1707540;84;25504;-61
2022/10/15 06:48:18;;;;;;;;;;;;;;;8.77;69.34;101943.62;1710832;82;25844;-60
2022/10/15 06:50:44;;;;;;;;;;;;;;;8.85;69.19;101947.17;1697744;82;25441;-60
2022/10/15 06:53:11;;;;;;;;;;;;;;;8.92;69.10;101948.97;1699407;82;27467;-60
2022/10/15 06:55:38;;;;;;;;;;;;;;;9.00;68.65;101947.16;1727867;82;25751;-61
2022/10/15 06:58:05;;;;;;;;;;;;;;;9.09;68.52;101953.28;1724190;82;25895;-61
2022/10/15 07:00:31;;;;;;;;;;;;;;;9.18;68.17;101948.67;1707410;84;25786;-61
2022/10/15 07:03:03;;;;;;;;;;;;;;;9.29;67.30;101952.50;1725381;82;25724;-61
2022/10/15 07:05:31;;;;;;;;;;;;;;;9.42;67.35;101949.88;1735617;82;28483;-61
2022/10/15 07:07:57;;;;;;;;;;;;;;;9.56;67.58;101953.86;1718500;82;25787;-61
2022/10/15 07:10:26;;;;;;;;;;;;;;;9.69;67.19;101950.75;1717260;82;25637;-61
2022/10/15 07:12:53;;;;;;;;;;;;;;;9.85;66.26;101953.76;1710827;82;25785;-62
2022/10/15 07:15:20;;;;;;;;;;;;;;;10.00;65.26;101955.41;1694952;82;25932;-60
2022/10/15 07:17:52;;;;;;;;;;;;;;;10.14;65.18;101956.32;1737111;82;27475;-61
2022/10/15 07:20:19;;;;;;;;;;;;;;;10.28;64.99;101949.50;1721551;82;26036;-61
2022/10/15 07:22:47;;;;;;;;;;;;;;;10.40;64.49;101943.79;1721142;82;25793;-60
2022/10/15 07:25:15;;;;;;;;;;;;;;;10.51;64.65;101948.45;1692240;82;26442;-61
2022/10/15 07:27:42;;;;;;;;;;;;;;;10.61;64.14;101945.95;1727395;82;26439;-61
2022/10/15 07:30:09;;;;;;;;;;;;;;;10.73;63.09;101949.61;1726298;82;27547;-61
2022/10/15 07:32:36;;;;;;;;;;;;;;;10.86;62.45;101949.60;1737012;82;25773;-60
2022/10/15 07:35:04;;;;;;;;;;;;;;;10.99;62.13;101949.12;1689208;82;25755;-60
2022/10/15 07:37:31;;;;;;;;;;;;;;;11.15;61.42;101949.34;1667222;85;26448;-60
2022/10/15 07:39:58;;;;;;;;;;;;;;;11.28;61.09;101942.95;1711933;82;25717;-60
2022/10/15 07:42:25;;;;;;;;;;;;;;;11.45;60.79;101945.40;1728141;82;27447;-60
2022/10/15 07:44:51;;;;;;;;;;;;;;;11.60;60.63;101946.95;1709528;82;27319;-60
2022/10/15 07:47:18;;;;;;;;;;;;;;;11.76;60.41;101949.37;1691800;82;25770;-60
2022/10/15 07:49:45;;;;;;;;;;;;;;;11.91;57.22;101944.66;1696458;82;26573;-61
2022/10/15 07:52:11;;;;;;;;;;;;;;;12.07;57.55;101941.67;1706523;82;25730;-61
2022/10/15 07:54:38;;;;;;;;;;;;;;;12.29;56.89;101944.08;1734854;82;27492;-60
2022/10/15 07:57:05;;;;;;;;;;;;;;;12.47;57.79;101941.77;1737077;82;25744;-61
2022/10/15 07:59:33;;;;;;;;;;;;;;;12.64;55.78;101941.80;1726532;82;25986;-60
2022/10/15 08:02:00;;;;;;;;;;;;;;;12.82;54.79;101940.82;1704506;83;26555;-61
2022/10/15 08:04:27;;;;;;;;;;;;;;;12.98;51.71;101938.64;1688991;82;25890;-60
2022/10/15 08:06:53;;;;;;;;;;;;;;;13.14;52.83;101942.29;1679527;84;27500;-60
2022/10/15 08:09:20;;;;;;;;;;;;;;;13.33;51.49;101942.14;1696998;82;25822;-60
2022/10/15 08:11:46;;;;;;;;;;;;;;;13.52;51.44;101937.96;1736866;82;25735;-60
2022/10/15 08:14:14;;;;;;;;;;;;;;;13.68;48.46;101934.34;1714916;82;25858;-60
2022/10/15 08:16:40;;;;;;;;;;;;;;;13.86;46.85;101938.72;1715659;82;25710;-61
2022/10/15 08:19:07;;;;;;;;;;;;;;;14.02;48.55;101938.28;1702714;82;27486;-60
2022/10/15 08:21:33;;;;;;;;;;;;;;;14.21;47.32;101948.86;1679648;82;25750;-61
2022/10/15 08:24:00;;;;;;;;;;;;;;;14.38;47.88;101951.48;1694236;82;25763;-61
2022/10/15 08:26:32;;;;;;;;;;;;;;;14.57;46.07;101939.91;1689133;83;25868;-60
2022/10/15 08:28:58;;;;;;;;;;;;;;;14.73;46.30;101940.81;1727834;82;26296;-60
2022/10/15 08:31:25;;;;;;;;;;;;;;;14.89;45.00;101946.22;1695952;83;27733;-62
2022/10/15 08:33:51;;;;;;;;;;;;;;;15.03;44.15;101948.08;1696434;83;25848;-60
2022/10/15 08:36:18;;;;;;;;;;;;;;;15.21;45.21;101940.64;1727670;82;25655;-61
2022/10/15 08:38:44;;;;;;;;;;;;;;;15.39;46.16;101943.56;1727859;83;25801;-60
2022/10/15 08:41:30;;;;;;;;;;;;;;;15.58;45.39;101941.89;1694163;83;25796;-60
2022/10/15 08:43:57;;;;;;;;;;;;;;;15.80;45.28;101938.05;1721838;82;27485;-61
2022/10/15 08:46:27;;;;;;;;;;;;;;;16.04;43.03;101947.16;1694157;83;25699;-60
2022/10/15 08:48:55;;;;;;;;;;;;;;;16.31;43.70;101943.33;1689010;83;25861;-60
2022/10/15 08:51:43;;;;;;;;;;;;;;;16.53;42.36;101940.78;1679706;83;25978;-61
2022/10/15 08:56:56;;;;;;;;;;;;;;;17.05;38.44;101936.27;1678855;83;27445;-60
2022/10/15 08:59:41;;;;;;;;;;;;;;;17.26;37.24;101941.97;1724000;83;26625;-60
2022/10/15 09:02:23;;;;;;;;;;;;;;;17.56;37.80;101942.13;1706872;83;25729;-61
2022/10/15 09:05:15;;;;;;;;;;;;;;;18.30;37.15;101931.08;1698085;83;25935;-60
2022/10/15 09:07:54;;;;;;;;;;;;;;;19.30;35.89;101931.09;1699313;84;25730;-61
2022/10/15 09:10:36;;;;;;;;;;;;;;;20.19;34.38;101927.33;1705381;83;27469;-60
2022/10/15 09:13:06;;;;;;;;;;;;;;;20.87;32.22;101930.62;1694036;84;25755;-61
2022/10/15 09:15:36;;;;;;;;;;;;;;;21.37;31.41;101934.52;1707115;83;25475;-61
2022/10/15 09:18:03;;;;;;;;;;;;;;;21.82;29.16;101934.25;1715479;83;26850;-61
2022/10/15 09:20:34;;;;;;;;;;;;;;;22.29;29.09;101933.67;1686910;83;25722;-61
2022/10/15 09:23:01;;;;;;;;;;;;;;;22.81;29.63;101941.56;1697957;83;27498;-61
2022/10/15 09:25:32;;;;;;;;;;;;;;;23.35;30.96;101940.05;1698385;83;25814;-61
2022/10/15 09:28:03;;;;;;;;;;;;;;;23.86;30.97;101934.47;1715624;83;25700;-61
2022/10/15 09:30:48;;;;;;;;;;;;;;;24.44;29.78;101938.14;1706535;82;25995;-61
2022/10/15 09:33:36;;;;;;;;;;;;;;;24.89;28.08;101933.70;1714574;82;25723;-61
2022/10/15 09:36:28;;;;;;;;;;;;;;;25.26;28.73;101926.03;1691789;83;27492;-62
2022/10/15 09:39:01;;;;;;;;;;;;;;;25.50;25.33;101930.17;1694781;83;25844;-61
2022/10/15 09:41:55;;;;;;;;;;;;;;;25.44;24.30;101921.34;1696237;83;25710;-62
2022/10/15 09:44:24;;;;;;;;;;;;;;;25.54;24.33;101925.92;1692137;84;25768;-61
2022/10/15 09:46:51;;;;;;;;;;;;;;;25.97;24.25;101930.23;1693192;84;25767;-61
2022/10/15 09:49:26;;;;;;;;;;;;;;;26.35;25.07;101924.12;1715718;83;27078;-61
2022/10/15 09:52:03;;;;;;;;;;;;;;;26.67;24.66;101928.94;1725011;83;26468;-61
2022/10/15 09:54:36;;;;;;;;;;;;;;;26.89;23.71;101923.16;1726922;82;25681;-61
2022/10/15 09:57:03;;;;;;;;;;;;;;;27.34;22.84;101928.70;1699740;83;26440;-62
2022/10/15 09:59:30;;;;;;;;;;;;;;;27.63;23.83;101922.30;1675923;84;25734;-61
2022/10/15 10:02:05;;;;;;;;;;;;;;;27.85;23.42;101915.00;1695227;84;27488;-62
2022/10/15 10:04:33;;;;;;;;;;;;;;;28.23;22.13;101907.16;1705313;83;25747;-61
2022/10/15 10:07:06;;;;;;;;;;;;;;;28.58;22.84;101909.36;1682141;83;25525;-62
2022/10/15 10:09:37;;;;;;;;;;;;;;;28.70;22.71;101908.95;1689420;84;25962;-60
2022/10/15 10:12:07;;;;;;;;;;;;;;;28.50;19.47;101908.28;1671466;85;27405;-61
2022/10/15 10:14:36;;;;;;;;;;;;;;;28.73;21.94;101908.46;1671876;84;29719;-62
2022/10/15 10:17:05;;;;;;;;;;;;;;;29.14;20.85;101901.88;1693728;83;25719;-60
2022/10/15 10:19:32;;;;;;;;;;;;;;;29.47;21.55;101903.91;1711416;83;25677;-62
2022/10/15 10:22:19;;;;;;;;;;;;;;;29.67;21.21;101903.63;1693869;83;25770;-61
2022/10/15 10:24:46;;;;;;;;;;;;;;;29.67;18.30;101907.23;1691047;82;25712;-60
2022/10/15 10:27:25;;;;;;;;;;;;;;;29.82;21.31;101899.86;1725257;82;27527;-61
2022/10/15 10:29:58;;;;;;;;;;;;;;;29.56;20.18;101900.28;1734401;82;25766;-61
2022/10/15 10:32:30;;;;;;;;;;;;;;;29.30;19.28;101894.85;1692981;82;25703;-62
2022/10/15 10:34:57;;;;;;;;;;;;;;;29.75;20.52;101896.88;1732553;82;26736;-61
2022/10/15 10:37:24;;;;;;;;;;;;;;;29.95;20.16;101891.88;1718092;82;25707;-60
2022/10/15 10:39:56;;;;;;;;;;;;;;;30.10;19.56;101891.42;1708812;82;27704;-60
2022/10/15 10:42:26;;;;;;;;;;;;;;;30.14;19.77;101888.45;1717423;82;25749;-61
2022/10/15 10:44:53;;;;;;;;;;;;;;;30.29;19.79;101885.75;1683706;82;25732;-60
2022/10/15 10:47:24;;;;;;;;;;;;;;;30.18;18.63;101876.31;1719420;82;25787;-60
2022/10/15 10:49:57;;;;;;;;;;;;;;;30.36;19.13;101881.44;1689310;82;25691;-61
2022/10/15 10:52:32;;;;;;;;;;;;;;;30.49;17.78;101874.78;1723279;82;27563;-60
2022/10/15 10:55:14;;;;;;;;;;;;;;;30.50;18.00;101869.53;1735767;82;25677;-61
2022/10/15 10:57:47;;;;;;;;;;;;;;;30.20;17.77;101872.77;1714097;82;25704;-60
2022/10/15 11:00:20;;;;;;;;;;;;;;;30.05;18.57;101871.02;1702175;83;26514;-60
2022/10/15 11:02:49;;;;;;;;;;;;;;;30.16;18.46;101864.64;1680779;83;25706;-61
2022/10/15 11:05:25;;;;;;;;;;;;;;;30.42;18.22;101872.98;1672083;84;27547;-60
2022/10/15 11:07:57;;;;;;;;;;;;;;;30.40;19.12;101866.00;1731502;82;25728;-60
2022/10/15 11:10:30;;;;;;;;;;;;;;;30.32;17.71;101860.27;1707793;82;25702;-61
2022/10/15 11:13:15;;;;;;;;;;;;;;;30.36;18.80;101853.16;1726900;82;25837;-61
2022/10/15 11:15:49;;;;;;;;;;;;;;;30.19;19.37;101852.20;1721475;82;27251;-61
2022/10/15 11:18:34;;;;;;;;;;;;;;;30.12;18.61;101848.98;1667748;84;27502;-61
2022/10/15 11:21:23;;;;;;;;;;;;;;;29.72;18.29;101849.68;1674822;82;25751;-60
2022/10/15 11:24:12;;;;;;;;;;;;;;;29.36;18.75;101848.20;1729397;82;25972;-60
2022/10/15 11:26:57;;;;;;;;;;;;;;;28.88;19.12;101843.55;1700423;82;25814;-61
2022/10/15 11:29:39;;;;;;;;;;;;;;;28.29;19.18;101841.22;1686658;82;25785;-60
2022/10/15 11:32:27;;;;;;;;;;;;;;;27.88;20.03;101846.27;1696885;82;28658;-60
2022/10/15 11:35:00;;;;;;;;;;;;;;;27.70;19.60;101848.45;1678425;85;25731;-60
2022/10/15 11:37:42;;;;;;;;;;;;;;;27.49;20.59;101839.46;1696110;83;25795;-61
2022/10/15 11:40:19;;;;;;;;;;;;;;;27.26;20.60;101840.02;1682048;83;25815;-61
2022/10/15 11:42:58;;;;;;;;;;;;;;;27.08;20.90;101833.00;1678258;83;25703;-60
2022/10/15 11:45:41;;;;;;;;;;;;;;;26.90;20.74;101837.34;1683045;83;27638;-61
2022/10/15 11:48:27;;;;;;;;;;;;;;;26.73;20.54;101838.36;1699862;83;25739;-59
2022/10/15 11:51:04;;;;;;;;;;;;;;;26.52;21.14;101835.37;1696391;83;25709;-60
2022/10/15 11:53:42;;;;;;;;;;;;;;;26.39;20.35;101833.50;1683880;84;25892;-61
2022/10/15 11:56:25;;;;;;;;;;;;;;;26.13;21.24;101831.12;1691480;82;25777;-61
2022/10/15 11:59:02;;;;;;;;;;;;;;;25.89;21.02;101827.08;1691428;83;28424;-61
2022/10/15 12:01:38;;;;;;;;;;;;;;;25.52;20.95;101824.73;1686374;83;26069;-61
2022/10/15 12:04:12;;;;;;;;;;;;;;;25.19;22.31;101829.63;1727557;83;25740;-61
2022/10/15 12:06:43;;;;;;;;;;;;;;;25.08;21.62;101832.98;1713584;83;25720;-62
2022/10/15 12:09:13;;;;;;;;;;;;;;;24.92;21.72;101832.31;1714154;82;25743;-61
2022/10/15 12:11:42;;;;;;;;;;;;;;;24.74;21.65;101826.02;1727797;83;28392;-62
2022/10/15 12:14:39;;;;;;;;;;;;;;;24.79;22.21;101817.97;1731023;83;26007;-62
2022/10/15 12:17:12;;;;;;;;;;;;;;;25.04;22.03;101825.67;1713080;83;25772;-62
2022/10/15 12:19:54;;;;;;;;;;;;;;;25.21;21.50;101823.91;1731548;83;25843;-61
2022/10/15 12:22:38;;;;;;;;;;;;;;;25.25;21.47;101821.91;1730282;83;27332;-61
2022/10/15 12:25:07;;;;;;;;;;;;;;;25.48;21.61;101823.47;1719117;83;28274;-61
2022/10/15 12:27:35;;;;;;;;;;;;;;;25.90;21.93;101821.34;1701944;83;25901;-60
2022/10/15 12:30:05;;;;;;;;;;;;;;;26.34;21.52;101823.63;1678336;83;25761;-60
2022/10/15 12:32:41;;;;;;;;;;;;;;;26.97;21.08;101822.13;1674963;84;25797;-60
2022/10/15 12:35:17;;;;;;;;;;;;;;;27.61;21.37;101822.16;1718289;83;25733;-61
2022/10/15 12:37:45;;;;;;;;;;;;;;;28.36;19.36;101826.80;1705276;83;27646;-61
2022/10/15 12:40:27;;;;;;;;;;;;;;;28.57;19.54;101822.72;1709764;83;25911;-61
2022/10/15 12:43:04;;;;;;;;;;;;;;;28.83;18.71;101822.62;1714753;83;25788;-61
2022/10/15 12:45:40;;;;;;;;;;;;;;;29.14;18.50;101819.33;1693241;83;25788;-61
2022/10/15 12:48:13;;;;;;;;;;;;;;;29.73;17.61;101818.09;1692570;84;25763;-62
2022/10/15 12:50:40;;;;;;;;;;;;;;;30.00;16.74;101819.56;1692860;83;27599;-62
2022/10/15 12:53:28;;;;;;;;;;;;;;;30.21;17.45;101813.97;1706107;83;25765;-62
2022/10/15 12:56:18;;;;;;;;;;;;;;;30.55;17.02;101814.99;1718938;83;25460;-61
2022/10/15 12:58:55;;;;;;;;;;;;;;;30.86;17.36;101817.02;1682078;83;25949;-61
2022/10/15 13:01:27;;;;;;;;;;;;;;;31.07;16.32;101822.41;1677263;84;25955;-61
2022/10/15 13:03:58;;;;;;;;;;;;;;;31.61;16.79;101817.52;1686552;85;27564;-61
2022/10/15 13:06:33;;;;;;;;;;;;;;;32.19;16.72;101818.14;1702623;83;25835;-61